createdAt,value
2022-12-28T00:00:38.246Z,-1.60
2022-12-28T00:03:25.431Z,-1.60
2022-12-28T00:06:12.873Z,-1.50
2022-12-28T00:09:01.963Z,-1.50
2022-12-28T00:11:49.028Z,-1.50
2022-12-28T00:14:36.718Z,-1.50
2022-12-28T00:17:23.892Z,-1.50
2022-12-28T00:20:12.791Z,-1.50
2022-12-28T00:23:00.059Z,-1.40
2022-12-28T00:25:49.053Z,-1.40
2022-12-28T00:28:36.635Z,-1.50
2022-12-28T00:31:24.185Z,-1.40
2022-12-28T00:34:11.387Z,-1.40
2022-12-28T00:37:08.571Z,-1.40
2022-12-28T00:40:00.371Z,-1.40
2022-12-28T00:42:49.119Z,-1.30
2022-12-28T00:45:36.267Z,-1.30
2022-12-28T00:48:23.478Z,-1.20
2022-12-28T00:51:13.996Z,-1.10
2022-12-28T00:54:01.337Z,-1.00
2022-12-28T00:56:48.013Z,-1.00
2022-12-28T00:59:37.231Z,-0.70
2022-12-28T01:02:24.579Z,-0.40
2022-12-28T01:05:11.693Z,-0.40
2022-12-28T01:07:58.727Z,-0.10
2022-12-28T01:10:46.346Z,-0.10
2022-12-28T01:13:33.730Z,0.10
2022-12-28T01:16:24.110Z,0.10
2022-12-28T01:19:16.285Z,0.00
2022-12-28T01:22:03.379Z,0.00
2022-12-28T01:24:50.896Z,0.20
2022-12-28T01:27:37.740Z,0.50
2022-12-28T01:30:25.291Z,0.40
2022-12-28T01:33:13.981Z,0.30
2022-12-28T01:36:06.589Z,0.20
2022-12-28T01:38:55.148Z,0.10
2022-12-28T01:41:43.665Z,0.10
2022-12-28T01:44:44.648Z,0.20
2022-12-28T01:47:36.355Z,0.20
2022-12-28T01:50:29.299Z,0.20
2022-12-28T01:53:16.361Z,0.30
2022-12-28T01:56:03.507Z,0.40
2022-12-28T01:58:51.294Z,0.50
2022-12-28T02:01:38.949Z,0.70
2022-12-28T02:04:26.867Z,0.70
2022-12-28T02:07:18.153Z,0.70
2022-12-28T02:10:43.619Z,0.70
2022-12-28T02:13:15.552Z,0.80
2022-12-28T02:16:02.530Z,0.80
2022-12-28T02:18:49.777Z,0.70
2022-12-28T02:21:52.425Z,0.60
2022-12-28T02:25:12.035Z,0.70
2022-12-28T02:28:09.909Z,0.70
2022-12-28T02:31:05.430Z,0.80
2022-12-28T02:33:58.317Z,0.80
2022-12-28T02:36:56.683Z,0.80
2022-12-28T02:39:52.973Z,0.80
2022-12-28T02:42:41.883Z,0.80
2022-12-28T02:45:55.283Z,0.70
2022-12-28T02:49:03.055Z,0.60
2022-12-28T02:52:04.106Z,0.60
2022-12-28T02:55:36.728Z,0.60
2022-12-28T02:58:56.313Z,0.50
2022-12-28T03:02:13.673Z,0.50
2022-12-28T03:05:14.443Z,0.70
2022-12-28T03:08:20.074Z,0.90
2022-12-28T03:11:10.782Z,1.00
2022-12-28T03:14:06.881Z,1.20
2022-12-28T03:17:16.674Z,1.50
2022-12-28T03:20:32.130Z,1.50
2022-12-28T03:23:40.911Z,1.80
2022-12-28T03:26:47.852Z,2.10
2022-12-28T03:29:57.259Z,2.20
2022-12-28T03:32:44.994Z,2.30
2022-12-28T03:35:41.669Z,2.60
2022-12-28T03:38:40.276Z,2.70
2022-12-28T03:41:32.677Z,2.70
2022-12-28T03:44:24.464Z,2.70
2022-12-28T03:47:14.888Z,2.80
2022-12-28T03:50:01.676Z,2.80
2022-12-28T03:52:50.334Z,2.80
2022-12-28T03:55:38.405Z,2.90
2022-12-28T03:58:25.516Z,2.80
2022-12-28T04:01:12.771Z,2.90
2022-12-28T04:04:00.004Z,2.90
2022-12-28T04:06:47.278Z,2.90
2022-12-28T04:09:36.172Z,3.10
2022-12-28T04:12:23.066Z,3.10
2022-12-28T04:15:10.695Z,3.10
2022-12-28T04:17:57.554Z,3.10
2022-12-28T04:20:45.334Z,3.00
2022-12-28T04:23:33.703Z,3.00
2022-12-28T04:26:22.345Z,3.00
2022-12-28T04:29:09.275Z,3.00
2022-12-28T04:31:56.258Z,3.00
2022-12-28T04:34:48.172Z,3.00
2022-12-28T04:37:38.369Z,2.90
2022-12-28T04:40:25.788Z,2.90
2022-12-28T04:43:14.530Z,3.00
2022-12-28T04:46:03.347Z,3.00
2022-12-28T04:48:50.785Z,2.90
2022-12-28T04:51:37.832Z,3.00
2022-12-28T04:54:24.639Z,3.00
2022-12-28T04:57:11.423Z,2.90
2022-12-28T05:00:00.241Z,2.80
2022-12-28T05:02:47.384Z,2.90
2022-12-28T05:05:35.025Z,3.00
2022-12-28T05:08:21.977Z,2.90
2022-12-28T05:11:12.599Z,3.00
2022-12-28T05:14:00.188Z,2.90
2022-12-28T05:16:52.190Z,3.00
2022-12-28T05:19:39.424Z,2.90
2022-12-28T05:22:26.985Z,2.90
2022-12-28T05:25:14.041Z,2.80
2022-12-28T05:28:00.933Z,2.80
2022-12-28T05:30:47.837Z,2.80
2022-12-28T05:33:37.194Z,2.80
2022-12-28T05:36:25.573Z,3.10
2022-12-28T05:39:12.744Z,3.10
2022-12-28T05:42:02.707Z,3.10
2022-12-28T05:44:49.510Z,3.10
2022-12-28T05:47:36.488Z,3.00
2022-12-28T05:50:24.958Z,3.00
2022-12-28T05:53:12.199Z,3.00
2022-12-28T05:56:05.000Z,2.90
2022-12-28T05:58:55.531Z,2.80
2022-12-28T06:01:45.211Z,2.90
2022-12-28T06:04:32.547Z,2.90
2022-12-28T06:07:21.047Z,2.90
2022-12-28T06:10:09.306Z,3.00
2022-12-28T06:12:56.325Z,3.00
2022-12-28T06:15:43.491Z,3.00
2022-12-28T06:18:30.768Z,3.30
2022-12-28T06:21:20.763Z,3.30
2022-12-28T06:24:10.616Z,3.30
2022-12-28T06:26:57.610Z,3.30
2022-12-28T06:29:44.457Z,3.40
2022-12-28T06:32:31.384Z,3.40
2022-12-28T06:35:20.054Z,3.40
2022-12-28T06:38:07.127Z,3.40
2022-12-28T06:41:12.690Z,3.40
2022-12-28T06:44:01.212Z,3.50
2022-12-28T06:46:48.298Z,3.40
2022-12-28T06:49:35.271Z,3.40
2022-12-28T06:52:22.525Z,3.40
2022-12-28T06:55:10.217Z,3.40
2022-12-28T06:57:58.585Z,3.40
2022-12-28T07:00:45.717Z,3.30
2022-12-28T07:03:33.004Z,3.30
2022-12-28T07:06:22.158Z,3.20
2022-12-28T07:09:11.491Z,3.30
2022-12-28T07:11:58.866Z,3.20
2022-12-28T07:14:47.705Z,3.20
2022-12-28T07:17:34.760Z,3.20
2022-12-28T07:20:21.984Z,3.20
2022-12-28T07:23:09.040Z,3.20
2022-12-28T07:25:56.747Z,3.30
2022-12-28T07:28:46.300Z,3.30
2022-12-28T07:31:44.216Z,3.30
2022-12-28T07:34:33.324Z,3.40
2022-12-28T07:37:20.644Z,3.40
2022-12-28T07:40:09.468Z,3.50
2022-12-28T07:42:56.582Z,3.50
2022-12-28T07:45:43.772Z,3.50
2022-12-28T07:48:33.723Z,3.50
2022-12-28T07:51:23.876Z,3.50
2022-12-28T07:54:10.994Z,3.50
2022-12-28T07:56:58.030Z,3.60
2022-12-28T07:59:45.304Z,3.60
2022-12-28T08:02:32.216Z,3.80
2022-12-28T08:05:21.048Z,3.80
2022-12-28T08:08:08.149Z,3.80
2022-12-28T08:10:55.089Z,3.80
2022-12-28T08:13:44.412Z,3.90
2022-12-28T08:16:33.903Z,3.90
2022-12-28T08:19:21.081Z,3.90
2022-12-28T08:22:09.565Z,4.00
2022-12-28T08:24:57.874Z,4.00
2022-12-28T08:27:45.029Z,4.10
2022-12-28T08:30:32.637Z,4.10
2022-12-28T08:33:19.738Z,4.10
2022-12-28T08:36:10.344Z,4.10
2022-12-28T08:38:59.197Z,4.20
2022-12-28T08:41:46.725Z,4.30
2022-12-28T08:44:33.814Z,4.40
2022-12-28T08:47:21.150Z,4.40
2022-12-28T08:50:12.053Z,4.40
2022-12-28T08:52:59.887Z,4.30
2022-12-28T08:55:48.097Z,4.30
2022-12-28T08:58:35.657Z,4.30
2022-12-28T09:01:24.877Z,4.30
2022-12-28T09:04:15.194Z,4.30
2022-12-28T09:07:02.219Z,4.40
2022-12-28T09:09:49.783Z,4.50
2022-12-28T09:12:38.552Z,4.60
2022-12-28T09:15:25.805Z,4.60
2022-12-28T09:18:15.311Z,4.70
2022-12-28T09:21:06.940Z,4.70
2022-12-28T09:23:54.500Z,4.70
2022-12-28T09:26:41.803Z,4.70
2022-12-28T09:29:30.241Z,4.70
2022-12-28T09:32:17.496Z,4.70
2022-12-28T09:35:05.037Z,4.80
2022-12-28T09:37:52.082Z,4.90
2022-12-28T09:40:40.243Z,5.00
2022-12-28T09:43:29.794Z,5.00
2022-12-28T09:46:20.791Z,5.10
2022-12-28T09:49:15.270Z,5.20
2022-12-28T09:52:12.028Z,5.20
2022-12-28T09:55:08.421Z,5.30
2022-12-28T09:57:57.944Z,5.30
2022-12-28T10:00:47.857Z,5.40
2022-12-28T10:03:38.622Z,5.30
2022-12-28T10:06:29.108Z,5.30
2022-12-28T10:09:26.156Z,5.40
2022-12-28T10:12:17.652Z,5.40
2022-12-28T10:15:08.144Z,5.50
2022-12-28T10:17:55.543Z,5.50
2022-12-28T10:20:45.475Z,5.60
2022-12-28T10:23:50.162Z,5.80
2022-12-28T10:26:47.316Z,6.00
2022-12-28T10:29:35.624Z,6.20
2022-12-28T10:32:23.255Z,6.40
2022-12-28T10:35:24.130Z,6.60
2022-12-28T10:38:23.120Z,6.80
2022-12-28T10:41:13.245Z,6.70
2022-12-28T10:44:37.561Z,7.20
2022-12-28T10:47:17.256Z,8.00
2022-12-28T10:53:24.456Z,8.50
2022-12-28T10:56:23.503Z,8.80
2022-12-28T10:59:25.389Z,8.90
2022-12-28T11:02:27.366Z,8.30
2022-12-28T11:05:21.818Z,7.80
2022-12-28T11:08:08.916Z,7.70
2022-12-28T11:10:59.568Z,7.40
2022-12-28T11:13:48.501Z,7.20
2022-12-28T11:16:38.878Z,7.20
2022-12-28T11:19:27.050Z,7.20
2022-12-28T11:22:16.647Z,7.00
2022-12-28T11:25:04.254Z,7.10
2022-12-28T11:27:53.118Z,7.00
2022-12-28T11:30:40.430Z,7.00
2022-12-28T11:33:33.557Z,7.10
2022-12-28T11:36:23.520Z,7.20
2022-12-28T11:39:33.734Z,7.10
2022-12-28T11:42:59.602Z,7.20
2022-12-28T11:45:55.039Z,7.00
2022-12-28T11:48:58.124Z,6.90
2022-12-28T11:51:44.887Z,6.90
2022-12-28T11:54:40.353Z,6.80
2022-12-28T11:57:52.914Z,6.80
2022-12-28T12:00:52.480Z,6.80
2022-12-28T12:04:11.976Z,6.70
2022-12-28T12:07:31.025Z,6.70
2022-12-28T12:10:35.149Z,6.60
2022-12-28T12:13:44.881Z,6.80
2022-12-28T12:16:49.639Z,7.00
2022-12-28T12:19:38.906Z,7.20
2022-12-28T12:22:32.021Z,7.60
2022-12-28T12:25:24.931Z,8.00
2022-12-28T12:28:25.270Z,8.20
2022-12-28T12:31:16.985Z,8.10
2022-12-28T12:34:19.235Z,8.20
2022-12-28T12:37:33.045Z,8.20
2022-12-28T12:40:53.661Z,7.90
2022-12-28T12:43:51.248Z,7.90
2022-12-28T12:47:23.061Z,7.80
2022-12-28T12:50:35.391Z,7.70
2022-12-28T12:53:33.763Z,7.70
2022-12-28T12:56:33.555Z,7.70
2022-12-28T12:59:40.274Z,7.70
2022-12-28T13:03:02.149Z,7.70
2022-12-28T13:05:54.614Z,7.70
2022-12-28T13:08:48.487Z,8.00
2022-12-28T13:11:38.353Z,8.00
2022-12-28T13:14:26.218Z,8.00
2022-12-28T13:17:19.472Z,8.00
2022-12-28T13:20:12.094Z,8.00
2022-12-28T13:23:00.792Z,8.20
2022-12-28T13:25:51.016Z,8.20
2022-12-28T13:28:51.829Z,8.20
2022-12-28T13:31:41.508Z,8.20
2022-12-28T13:34:30.712Z,8.00
2022-12-28T13:37:18.520Z,7.90
2022-12-28T13:40:16.878Z,7.80
2022-12-28T13:43:30.076Z,7.80
2022-12-28T13:46:20.487Z,7.80
2022-12-28T13:49:08.584Z,7.80
2022-12-28T13:51:56.718Z,7.80
2022-12-28T13:54:49.139Z,7.80
2022-12-28T13:57:50.148Z,7.80
2022-12-28T14:00:40.338Z,7.80
2022-12-28T14:03:27.896Z,7.80
2022-12-28T14:06:17.036Z,7.80
2022-12-28T14:09:05.956Z,7.80
2022-12-28T14:11:53.594Z,7.70
2022-12-28T14:14:43.108Z,7.60
2022-12-28T14:17:31.394Z,7.50
2022-12-28T14:20:18.840Z,7.40
2022-12-28T14:23:23.559Z,7.30
2022-12-28T14:26:19.451Z,7.20
2022-12-28T14:29:13.521Z,7.20
2022-12-28T14:32:05.701Z,7.20
2022-12-28T14:34:59.380Z,7.10
2022-12-28T14:37:51.246Z,7.10
2022-12-28T14:40:38.428Z,7.10
2022-12-28T14:43:27.712Z,7.00
2022-12-28T14:46:19.962Z,6.90
2022-12-28T14:49:36.532Z,6.90
2022-12-28T14:52:37.834Z,6.90
2022-12-28T14:55:50.030Z,6.80
2022-12-28T14:58:50.449Z,6.80
2022-12-28T15:01:42.746Z,6.80
2022-12-28T15:04:38.761Z,6.80
2022-12-28T15:07:26.636Z,6.80
2022-12-28T15:10:13.854Z,6.80
2022-12-28T15:13:00.827Z,6.80
2022-12-28T15:15:55.843Z,6.70
2022-12-28T15:18:45.312Z,6.70
2022-12-28T15:21:34.109Z,6.70
2022-12-28T15:24:23.599Z,6.60
2022-12-28T15:27:12.243Z,6.70
2022-12-28T15:30:08.268Z,6.60
2022-12-28T15:32:59.529Z,6.60
2022-12-28T15:35:46.627Z,6.70
2022-12-28T15:38:35.885Z,6.70
2022-12-28T15:41:40.477Z,6.60
2022-12-28T15:44:27.701Z,6.60
2022-12-28T15:47:14.814Z,6.60
2022-12-28T15:50:03.525Z,6.50
2022-12-28T15:52:50.906Z,6.50
2022-12-28T15:55:39.592Z,6.50
2022-12-28T15:58:26.872Z,6.40
2022-12-28T16:01:14.127Z,6.30
2022-12-28T16:04:02.828Z,6.20
2022-12-28T16:06:49.775Z,6.20
2022-12-28T16:09:36.771Z,6.20
2022-12-28T16:12:25.969Z,6.10
2022-12-28T16:15:13.550Z,6.00
2022-12-28T16:18:01.013Z,6.00
2022-12-28T16:20:49.057Z,6.00
2022-12-28T16:23:38.124Z,6.00
2022-12-28T16:26:25.397Z,6.10
2022-12-28T16:29:13.883Z,6.10
2022-12-28T16:32:02.534Z,6.00
2022-12-28T16:34:49.723Z,5.80
2022-12-28T16:37:36.813Z,5.60
2022-12-28T16:40:24.120Z,5.40
2022-12-28T16:43:12.435Z,5.20
2022-12-28T16:46:08.036Z,5.10
2022-12-28T16:48:55.529Z,5.00
2022-12-28T16:51:45.382Z,4.90
2022-12-28T16:54:32.536Z,4.70
2022-12-28T16:57:19.854Z,4.60
2022-12-28T17:00:08.883Z,4.60
2022-12-28T17:02:57.441Z,4.40
2022-12-28T17:05:44.808Z,4.30
2022-12-28T17:08:35.155Z,4.30
2022-12-28T17:11:22.090Z,4.20
2022-12-28T17:14:11.265Z,4.20
2022-12-28T17:16:58.375Z,4.10
2022-12-28T17:19:47.497Z,4.00
2022-12-28T17:22:34.442Z,3.90
2022-12-28T17:25:21.767Z,3.80
2022-12-28T17:28:08.749Z,3.70
2022-12-28T17:31:05.834Z,3.60
2022-12-28T17:33:57.793Z,3.50
2022-12-28T17:36:46.194Z,3.60
2022-12-28T17:39:39.700Z,3.50
2022-12-28T17:42:27.310Z,3.30
2022-12-28T17:45:14.447Z,3.30
2022-12-28T17:48:01.925Z,3.20
2022-12-28T17:50:48.784Z,3.20
2022-12-28T17:53:37.957Z,3.20
2022-12-28T17:56:27.965Z,3.20
2022-12-28T17:59:17.152Z,3.20
2022-12-28T18:02:05.280Z,3.20
2022-12-28T18:04:52.436Z,3.10
2022-12-28T18:07:41.249Z,3.10
2022-12-28T18:10:29.833Z,3.00
2022-12-28T18:13:52.319Z,3.00
2022-12-28T18:16:42.457Z,2.90
2022-12-28T18:19:30.340Z,2.90
2022-12-28T18:22:17.298Z,2.90
2022-12-28T18:25:06.072Z,2.80
2022-12-28T18:28:17.480Z,2.80
2022-12-28T18:31:06.094Z,2.70
2022-12-28T18:33:53.506Z,2.70
2022-12-28T18:36:41.062Z,3.20
2022-12-28T18:39:28.335Z,3.00
2022-12-28T18:42:18.411Z,3.10
2022-12-28T18:45:08.964Z,3.20
2022-12-28T18:47:56.269Z,3.50
2022-12-28T18:50:52.393Z,3.70
2022-12-28T18:53:41.811Z,4.40
2022-12-28T18:56:28.833Z,4.80
2022-12-28T18:59:15.850Z,5.10
2022-12-28T19:02:07.384Z,5.30
2022-12-28T19:04:56.269Z,5.40
2022-12-28T19:07:49.166Z,5.80
2022-12-28T19:10:36.956Z,5.80
2022-12-28T19:13:24.137Z,5.80
2022-12-28T19:16:15.907Z,5.80
2022-12-28T19:19:04.674Z,5.70
2022-12-28T19:21:58.443Z,5.60
2022-12-28T19:24:45.865Z,5.70
2022-12-28T19:27:32.969Z,5.60
2022-12-28T19:30:19.964Z,5.60
2022-12-28T19:33:06.941Z,5.60
2022-12-28T19:35:55.290Z,5.70
2022-12-28T19:38:42.568Z,5.80
2022-12-28T19:41:29.551Z,5.90
2022-12-28T19:44:20.274Z,6.10
2022-12-28T19:47:07.639Z,6.20
2022-12-28T19:49:54.739Z,6.50
2022-12-28T19:52:43.307Z,6.70
2022-12-28T19:55:31.130Z,6.80
2022-12-28T19:58:20.669Z,6.90
2022-12-28T20:01:08.966Z,7.00
2022-12-28T20:03:56.637Z,6.90
2022-12-28T20:06:45.322Z,6.90
2022-12-28T20:09:34.539Z,6.90
2022-12-28T20:12:22.542Z,7.10
2022-12-28T20:15:10.407Z,6.90
2022-12-28T20:17:57.353Z,7.00
2022-12-28T20:21:17.298Z,7.20
2022-12-28T20:23:52.474Z,7.10
2022-12-28T20:26:41.180Z,7.20
2022-12-28T20:29:28.480Z,7.50
2022-12-28T20:32:15.463Z,7.40
2022-12-28T20:35:02.696Z,7.40
2022-12-28T20:37:49.820Z,7.30
2022-12-28T20:40:37.379Z,7.40
2022-12-28T20:43:25.064Z,7.30
2022-12-28T20:46:12.942Z,7.40
2022-12-28T20:49:00.446Z,7.50
2022-12-28T20:51:47.957Z,7.60
2022-12-28T20:54:35.111Z,7.50
2022-12-28T20:57:22.518Z,7.30
2022-12-28T21:00:12.766Z,7.50
2022-12-28T21:02:59.759Z,7.70
2022-12-28T21:05:46.933Z,7.60
2022-12-28T21:08:34.959Z,7.60
2022-12-28T21:11:22.402Z,7.50
2022-12-28T21:14:09.513Z,7.50
2022-12-28T21:16:58.404Z,7.50
2022-12-28T21:19:45.763Z,7.60
2022-12-28T21:22:32.600Z,7.50
2022-12-28T21:25:19.982Z,7.50
2022-12-28T21:28:07.097Z,7.60
2022-12-28T21:30:58.060Z,7.70
2022-12-28T21:33:46.874Z,7.70
2022-12-28T21:36:33.933Z,7.50
2022-12-28T21:39:20.844Z,7.60
2022-12-28T21:42:08.359Z,7.60
2022-12-28T21:44:55.300Z,7.80
2022-12-28T21:47:42.736Z,7.70
2022-12-28T21:50:31.577Z,7.70
2022-12-28T21:53:18.684Z,7.60
2022-12-28T21:56:06.631Z,7.50
2022-12-28T21:58:53.997Z,7.60
2022-12-28T22:01:59.196Z,7.70
2022-12-28T22:05:15.739Z,7.70
2022-12-28T22:08:18.080Z,7.70
2022-12-28T22:11:22.220Z,7.70
2022-12-28T22:14:09.413Z,7.70
2022-12-28T22:16:57.038Z,7.70
2022-12-28T22:19:44.157Z,7.80
2022-12-28T22:22:31.545Z,7.80
2022-12-28T22:25:20.385Z,7.80
2022-12-28T22:28:08.899Z,7.80
2022-12-28T22:30:57.352Z,7.90
2022-12-28T22:33:44.481Z,7.80
2022-12-28T22:36:31.457Z,8.00
2022-12-28T22:39:18.836Z,7.90
2022-12-28T22:42:08.658Z,7.90
2022-12-28T22:44:55.872Z,7.80
2022-12-28T22:47:43.566Z,7.90
2022-12-28T22:50:30.740Z,7.90
2022-12-28T22:53:18.157Z,8.00
2022-12-28T22:56:07.801Z,7.90
2022-12-28T22:59:00.476Z,8.00
2022-12-28T23:01:51.259Z,8.00
2022-12-28T23:04:38.427Z,8.00
2022-12-28T23:07:25.848Z,8.00
2022-12-28T23:10:12.793Z,7.90
2022-12-28T23:13:00.189Z,7.80
2022-12-28T23:15:55.473Z,7.90
2022-12-28T23:18:59.761Z,8.00
2022-12-28T23:22:04.513Z,8.00
2022-12-28T23:25:09.101Z,8.00
2022-12-28T23:27:56.692Z,7.90
2022-12-28T23:30:46.310Z,8.10
2022-12-28T23:33:36.719Z,8.20
2022-12-28T23:36:23.863Z,8.30
2022-12-28T23:39:11.134Z,8.30
2022-12-28T23:41:58.576Z,8.30
2022-12-28T23:44:49.781Z,8.30
2022-12-28T23:47:37.652Z,8.30
2022-12-28T23:50:26.087Z,8.30
2022-12-28T23:53:13.233Z,8.30
2022-12-28T23:56:00.344Z,8.10
2022-12-28T23:58:50.203Z,8.20
